Time;durP1;ratioP1;P1;durP2;ratioP2;P2;SDS_P1;SDS_P2;PMS_P1;PMS_P2;Temp;Humidity;BMP_temperature;BMP_pressure;BME280_temperature;BME280_humidity;BME280_pressure;Samples;Min_cycle;Max_cycle;Signal;HPM_P1;HPM_P2
2022/08/10 00:00:42;;;;;;;2.37;1.30;;;20.10;1.00;;;;;;5089995;28;20966;-70
2022/08/10 00:03:08;;;;;;;2.20;1.47;;;20.20;1.00;;;;;;5091120;28;20449;-71
2022/08/10 00:05:36;;;;;;;1.80;1.70;;;20.20;1.00;;;;;;5091380;28;20448;-70
2022/08/10 00:08:03;;;;;;;3.00;1.60;;;20.10;1.00;;;;;;5090602;28;20440;-71
2022/08/10 00:10:31;;;;;;;8.00;2.00;;;20.00;1.00;;;;;;5090374;28;20491;-71
2022/08/10 00:12:58;;;;;;;2.13;1.50;;;19.80;1.00;;;;;;5090385;28;20449;-71
2022/08/10 00:15:25;;;;;;;2.20;1.70;;;19.50;1.00;;;;;;5090977;28;20470;-71
2022/08/10 00:17:52;;;;;;;8.70;1.70;;;19.50;1.00;;;;;;5090366;28;20973;-71
2022/08/10 00:20:19;;;;;;;1.60;1.50;;;19.60;1.00;;;;;;5090824;28;20539;-71
2022/08/10 00:22:46;;;;;;;3.53;1.80;;;19.80;1.00;;;;;;5090104;28;20940;-71
2022/08/10 00:25:12;;;;;;;3.10;1.73;;;19.60;1.00;;;;;;5090834;28;20536;-71
2022/08/10 00:27:41;;;;;;;2.70;1.70;;;19.40;1.00;;;;;;5093995;28;21033;-68
2022/08/10 00:30:09;;;;;;;1.53;1.43;;;19.30;1.00;;;;;;5094748;28;20480;-71
2022/08/10 00:32:36;;;;;;;2.90;1.63;;;19.30;1.00;;;;;;5095161;28;20555;-70
2022/08/10 00:35:03;;;;;;;1.60;1.50;;;19.30;1.00;;;;;;5093955;28;20477;-70
2022/08/10 00:37:30;;;;;;;2.23;1.90;;;19.30;1.00;;;;;;5094666;28;20955;-71
2022/08/10 00:39:56;;;;;;;2.00;1.40;;;19.30;1.00;;;;;;5093826;28;20535;-71
2022/08/10 00:42:23;;;;;;;3.20;1.87;;;19.20;1.00;;;;;;5094837;28;20452;-71
2022/08/10 00:44:52;;;;;;;2.07;1.50;;;19.50;1.00;;;;;;5094061;28;20455;-71
2022/08/10 00:47:19;;;;;;;2.53;1.43;;;19.40;1.00;;;;;;5094466;28;20935;-71
2022/08/10 00:49:46;;;;;;;2.23;1.80;;;19.20;1.00;;;;;;5093704;28;20484;-71
2022/08/10 00:52:15;;;;;;;1.73;1.60;;;19.00;1.00;;;;;;5094752;28;20454;-71
2022/08/10 00:54:43;;;;;;;1.73;1.50;;;18.90;1.00;;;;;;5093944;28;20944;-70
2022/08/10 00:57:10;;;;;;;2.13;1.93;;;18.90;1.00;;;;;;5094415;28;20455;-71
2022/08/10 00:59:37;;;;;;;1.70;1.60;;;18.80;1.00;;;;;;5093845;28;20920;-71
2022/08/10 01:02:06;;;;;;;2.10;1.90;;;18.80;1.00;;;;;;5094254;28;20948;-71
2022/08/10 01:04:33;;;;;;;1.60;1.30;;;18.80;1.00;;;;;;5094223;28;20440;-70
2022/08/10 01:07:14;;;;;;;2.73;1.57;;;18.80;1.00;;;;;;5093592;28;20456;-71
2022/08/10 01:09:51;;;;;;;1.57;1.47;;;18.70;1.00;;;;;;5093341;28;20454;-70
2022/08/10 01:12:25;;;;;;;1.70;1.60;;;18.60;1.00;;;;;;5094691;28;20445;-71
2022/08/10 01:15:01;;;;;;;1.90;1.67;;;18.60;6.40;;;;;;5093538;28;20444;-71
2022/08/10 01:17:42;;;;;;;2.00;1.80;;;18.30;20.80;;;;;;5094376;28;20454;-71
2022/08/10 01:20:12;;;;;;;1.53;1.43;;;;;;;;;;5093906;28;20908;-71
2022/08/10 01:22:51;;;;;;;2.33;2.13;;;;;;;;;;5094270;28;20447;-68
2022/08/10 01:25:42;;;;;;;2.30;2.13;;;;;;;;;;5094125;28;20910;-71
2022/08/10 01:28:19;;;;;;;1.63;1.53;;;;;;;;;;5078918;28;20445;-70
2022/08/10 01:30:50;;;;;;;2.10;1.80;;;;;;;;;;5093496;28;20473;-70
2022/08/10 01:33:21;;;;;;;2.23;1.70;;;;;;;;;;5094113;28;20453;-70
2022/08/10 01:35:51;;;;;;;2.23;2.03;;;;;;;;;;5093455;28;20483;-70
2022/08/10 01:38:19;;;;;;;2.13;1.80;;;;;;;;;;5093921;28;20490;-70
2022/08/10 01:40:49;;;;;;;1.90;1.80;;;;;;;;;;5092938;28;20455;-70
2022/08/10 01:43:18;;;;;;;1.67;1.40;;;;;;;;;;5093451;28;20453;-71
2022/08/10 01:45:46;;;;;;;1.53;1.33;;;;;;;;;;5093187;28;20794;-70
2022/08/10 01:48:27;;;;;;;2.83;1.97;;;;;;;;;;5093687;28;20455;-70
2022/08/10 01:50:57;;;;;;;2.27;1.97;;;;;;;;;;5093172;28;20464;-71
2022/08/10 01:53:26;;;;;;;1.67;1.57;;;;;;;;;;5093591;28;20487;-70
2022/08/10 01:55:55;;;;;;;2.03;1.90;;;;;;;;;;5093099;28;20464;-71
2022/08/10 01:58:23;;;;;;;2.00;1.87;;;;;;;;;;5092879;28;20444;-71
2022/08/10 02:00:51;;;;;;;3.43;2.37;;;;;;;;;;5092803;28;20445;-71
2022/08/10 02:03:21;;;;;;;2.07;1.73;;;;;;;;;;5092762;28;20453;-71
2022/08/10 02:05:49;;;;;;;1.63;1.53;;;;;;;;;;5092426;28;20449;-70
2022/08/10 02:08:18;;;;;;;1.97;1.87;;;;;;;;;;5092942;28;20517;-70
2022/08/10 02:10:46;;;;;;;2.10;1.50;;;;;;;;;;5092400;28;20486;-70
2022/08/10 02:13:15;;;;;;;1.97;1.87;;;;;;;;;;5093188;28;20447;-71
2022/08/10 02:15:44;;;;;;;1.67;1.57;;;;;;;;;;5092597;28;20454;-70
2022/08/10 02:18:12;;;;;;;2.30;2.00;;;;;;;;;;5093379;28;20451;-70
2022/08/10 02:20:44;;;;;;;1.67;1.57;;;;;;;;;;5092934;28;20458;-70
2022/08/10 02:23:13;;;;;;;3.03;2.07;;;;;;;;;;5093160;28;20819;-70
2022/08/10 02:25:40;;;;;;;2.23;1.70;;;;;;;;;;5092205;28;20456;-69
2022/08/10 02:28:08;;;;;;;1.97;1.83;;;;;;;;;;5092866;28;20460;-71
2022/08/10 02:30:36;;;;;;;2.50;2.30;;;;;;;;;;5092465;28;20808;-71
2022/08/10 02:33:04;;;;;;;1.67;1.57;;;;;;;;;;5092401;28;20814;-70
2022/08/10 02:35:32;;;;;;;3.47;1.57;;;;;;;;;;5092564;28;20559;-71
2022/08/10 02:38:04;;;;;;;1.77;1.60;;;;;;;;;;5092483;28;21094;-71
2022/08/10 02:40:32;;;;;;;2.10;1.90;;;;;;;;;;5092620;28;20449;-72
2022/08/10 02:43:04;;;;;;;2.40;2.20;;;;;;;;;;5092156;28;20915;-71
2022/08/10 02:45:34;;;;;;;2.17;1.53;;;;;;;;;;5092284;28;20440;-71
2022/08/10 02:48:03;;;;;;;2.40;1.93;;;;;;;;;;5092017;28;20449;-70
2022/08/10 02:50:32;;;;;;;2.00;1.80;;;;;;;;;;5091356;28;20479;-70
2022/08/10 02:53:03;;;;;;;1.73;1.63;;;;;;;;;;5091848;28;20705;-71
2022/08/10 02:55:34;;;;;;;2.30;2.10;;;;;;;;;;5092563;28;20459;-71
2022/08/10 02:58:07;;;;;;;1.80;1.70;;;;;;;;;;5092067;28;20472;-71
2022/08/10 03:00:36;;;;;;;1.53;1.43;;;;;;;;;;5092282;28;20798;-71
2022/08/10 03:03:04;;;;;;;3.30;2.13;;;;;;;;;;5091528;28;20884;-70
2022/08/10 03:05:31;;;;;;;1.70;1.60;;;;;;;;;;5092199;28;20444;-70
2022/08/10 03:08:00;;;;;;;2.10;1.50;;;;;;;;;;5091638;28;20449;-71
2022/08/10 03:10:30;;;;;;;2.07;1.87;;;;;;;;;;5091405;28;20506;-70
2022/08/10 03:12:58;;;;;;;2.50;1.93;;;;;;;;;;5091174;28;20462;-71
2022/08/10 03:15:25;;;;;;;1.83;1.70;;;;;;;;;;5091919;28;20454;-72
2022/08/10 03:17:54;;;;;;;4.10;2.03;;;;;;;;;;5091182;28;21012;-70
2022/08/10 03:20:21;;;;;;;2.00;1.80;;;;;;;;;;5091588;28;20534;-70
2022/08/10 03:22:49;;;;;;;2.23;1.60;;;;;;;;;;5091203;28;20443;-70
2022/08/10 03:25:17;;;;;;;1.70;1.53;;;;;;;;;;5091982;28;20447;-70
2022/08/10 03:27:46;;;;;;;3.10;2.23;;;;;;;;;;5091320;28;20444;-70
2022/08/10 03:30:13;;;;;;;2.07;1.90;;;;;;;;;;5091229;28;20490;-70
2022/08/10 03:32:41;;;;;;;1.70;1.60;;;;;;;;;;5090667;28;20492;-70
2022/08/10 03:35:09;;;;;;;1.70;1.60;;;;;;;;;;5091668;28;20485;-70
2022/08/10 03:37:37;;;;;;;1.50;1.40;;;;;;;;;;5091716;28;20516;-70
2022/08/10 03:40:04;;;;;;;2.03;1.93;;;;;;;;;;5090754;28;20464;-70
2022/08/10 03:42:33;;;;;;;2.60;2.40;;;;;;;;;;5091608;28;20446;-70
2022/08/10 03:45:03;;;;;;;1.53;1.43;;;;;;;;;;5090653;28;20451;-70
2022/08/10 03:47:30;;;;;;;2.40;2.03;;;;;;;;;;5091176;28;20449;-70
2022/08/10 03:49:58;;;;;;;2.47;2.27;;;;;;;;;;5090540;28;20450;-70
2022/08/10 03:52:25;;;;;;;2.10;1.90;;;;;;;;;;5077934;28;20571;-70
2022/08/10 03:54:53;;;;;;;2.10;1.90;;;;;;;;;;5090799;28;20466;-69
2022/08/10 03:57:21;;;;;;;2.70;2.10;;;;;;;;;;5091415;28;20547;-70
2022/08/10 03:59:48;;;;;;;3.93;2.30;;;;;;;;;;5090112;28;20449;-70
2022/08/10 04:02:17;;;;;;;2.70;2.50;;;;;;;;;;5091236;28;20544;-70
2022/08/10 04:04:44;;;;;;;2.70;1.60;;;;;;;;;;5090648;28;20452;-70
2022/08/10 04:07:12;;;;;;;2.30;2.10;;;;;;;;;;5091271;28;20449;-70
2022/08/10 04:09:39;;;;;;;2.30;2.03;;;;;;;;;;5090901;28;20445;-70
2022/08/10 04:12:07;;;;;;;2.60;2.40;;;;;;;;;;5091208;28;20908;-70
2022/08/10 04:14:34;;;;;;;2.80;2.50;;;;;;;;;;5091350;28;20448;-70
2022/08/10 04:17:01;;;;;;;2.53;2.20;;;;;;;;;;5090691;28;20447;-70
2022/08/10 04:19:30;;;;;;;5.50;2.50;;;;;;;;;;5090662;28;20816;-70
2022/08/10 04:22:01;;;;;;;2.33;2.13;;;;;;;;;;5090528;28;20452;-70
2022/08/10 04:24:29;;;;;;;2.33;2.13;;;;;;;;;;5091072;28;20448;-70
2022/08/10 04:26:56;;;;;;;2.23;2.03;;;;;;;;;;5090112;28;20451;-70
2022/08/10 04:29:23;;;;;;;2.37;2.13;;;;;;;;;;5090196;28;20831;-70
2022/08/10 04:31:51;;;;;;;3.20;2.50;;;;;;;;;;5090409;28;20840;-70
2022/08/10 04:34:19;;;;;;;2.60;2.40;;;;;;;;;;5090965;28;20445;-70
2022/08/10 04:36:50;;;;;;;2.30;2.10;;;;;;;;;;5089909;28;20470;-70
2022/08/10 04:39:17;;;;;;;2.87;1.83;;;;;;;;;;5090505;28;20793;-70
2022/08/10 04:41:45;;;;;;;2.20;2.00;;;;;;;;;;5090221;28;20966;-69
2022/08/10 04:44:12;;;;;;;3.70;2.07;;;;;;;;;;5090465;28;20488;-69
2022/08/10 04:46:40;;;;;;;2.20;2.03;;;;;;;;;;5090806;28;20903;-67
2022/08/10 04:49:07;;;;;;;2.20;2.00;;;;;;;;;;5090258;28;20449;-69
2022/08/10 04:51:34;;;;;;;3.00;2.10;;;;;;;;;;5090935;28;20484;-71
2022/08/10 04:54:02;;;;;;;2.67;2.23;;;;;;;;;;5090241;28;20787;-70
2022/08/10 04:56:30;;;;;;;2.23;2.03;;;;;;;;;;5090779;28;20452;-69
2022/08/10 04:58:57;;;;;;;2.07;1.90;;;;;;;;;;5089573;28;20449;-70
2022/08/10 05:01:24;;;;;;;2.03;1.87;;;;;;;;;;5090816;28;20452;-72
2022/08/10 05:03:51;;;;;;;4.30;2.13;;;;;;;;;;5090397;28;20460;-70
2022/08/10 05:06:18;;;;;;;2.10;1.90;;;;;;;;;;5102577;28;20539;-69
2022/08/10 05:08:45;;;;;;;2.33;2.13;;;;;;;;;;5089625;28;20459;-70
2022/08/10 05:11:14;;;;;;;2.57;2.37;;;;;;;;;;5090620;28;20491;-69
2022/08/10 05:13:41;;;;;;;2.53;2.33;;;;;;;;;;5093709;28;20536;-69
2022/08/10 05:16:08;;;;;;;2.30;2.10;;;;;;;;;;5094293;28;20449;-69
2022/08/10 05:18:35;;;;;;;2.60;2.40;;;;;;;;;;5093873;28;20944;-70
2022/08/10 05:21:03;;;;;;;2.77;2.37;;;;;;;;;;5093816;28;20449;-70
2022/08/10 05:23:30;;;;;;;2.60;2.10;;;;;;;;;;5093997;28;20971;-70
2022/08/10 05:25:57;;;;;;;4.03;2.67;;;;;;;;;;5093286;28;20445;-71
2022/08/10 05:28:25;;;;;;;3.97;3.17;;;;;;;;;;5093576;28;20452;-70
2022/08/10 05:30:52;;;;;;;3.70;2.70;;;;;;;;;;5093320;28;20471;-70
2022/08/10 05:33:20;;;;;;;2.40;2.13;;;;;;;;;;5093674;28;20958;-70
2022/08/10 05:35:47;;;;;;;3.10;2.80;;;;;;;;;;5093196;28;20476;-70
2022/08/10 05:38:14;;;;;;;3.33;3.03;;;;;;;;;;5093547;28;20528;-70
2022/08/10 05:40:42;;;;;;;2.87;2.30;;;;;;;;;;5093455;28;20455;-70
2022/08/10 05:43:10;;;;;;;3.50;3.03;;;;;;;;;;5093911;28;20873;-70
2022/08/10 05:45:39;;;;;;;4.20;2.40;;;;;;;;;;5093890;28;20495;-70
2022/08/10 05:48:06;;;;;;;4.43;2.40;;;;;;;;;;5093313;28;20456;-70
2022/08/10 05:50:33;;;;;;;2.60;2.33;;;;;;;;;;5093616;28;20540;-70
2022/08/10 05:53:01;;;;;;;3.00;2.63;;;;;;;;;;5093127;28;20567;-70
2022/08/10 05:55:29;;;;;;;2.47;2.27;;;;;;;;;;5093960;28;20451;-70
2022/08/10 05:57:57;;;;;;;2.97;2.60;;;;;;;;;;5092748;28;20448;-69
2022/08/10 06:00:25;;;;;;;3.83;2.83;;;;;;;;;;5093509;28;20441;-71
2022/08/10 06:02:55;;;;;;;3.90;2.70;;;;;;;;;;5093051;28;20465;-70
2022/08/10 06:05:25;;;;;;;3.37;2.40;;;18.20;40.70;;;;;;5098366;28;20436;-70
2022/08/10 06:07:55;;;;;;;3.33;2.07;;;20.10;99.90;;;;;;5100226;28;20445;-70
2022/08/10 06:10:23;;;;;;;3.50;2.30;;;20.30;99.90;;;;;;5093608;28;20452;-71
2022/08/10 06:14:59;;;;;;;2.30;2.10;;;20.50;99.90;;;;;;5092846;28;20480;-71
2022/08/10 06:15:38;;;;;;;3.53;2.60;;;20.30;99.90;;;;;;5093084;28;20443;-71
2022/08/10 06:18:07;;;;;;;4.63;2.60;;;20.50;99.90;;;;;;5092601;28;20449;-70
2022/08/10 06:20:34;;;;;;;3.10;2.23;;;20.60;99.90;;;;;;5092972;28;20447;-70
2022/08/10 06:23:02;;;;;;;3.50;2.50;;;20.60;99.90;;;;;;5092020;28;20785;-71
2022/08/10 06:25:30;;;;;;;2.00;1.90;;;20.70;99.90;;;;;;5092654;28;20459;-70
2022/08/10 06:27:59;;;;;;;4.80;2.27;;;20.80;99.90;;;;;;5092089;28;20459;-70
2022/08/10 06:30:27;;;;;;;1.93;1.80;;;20.90;99.90;;;;;;5092546;28;20449;-71
2022/08/10 06:32:56;;;;;;;2.70;2.50;;;21.10;99.90;;;;;;5091666;28;20503;-70
2022/08/10 06:35:25;;;;;;;2.13;1.90;;;;;;;;;;5097028;28;20472;-71
2022/08/10 06:37:53;;;;;;;2.63;2.20;;;;;;;;;;5078586;28;20459;-71
2022/08/10 06:40:21;;;;;;;2.60;2.20;;;;;;;;;;5092675;28;20963;-72
2022/08/10 06:42:49;;;;;;;3.30;2.10;;;;;;;;;;5092105;28;20504;-72
2022/08/10 06:45:17;;;;;;;2.33;2.13;;;;;;;;;;5092463;28;20627;-70
2022/08/10 06:47:46;;;;;;;1.67;1.57;;;;;;;;;;5091731;28;20806;-70
2022/08/10 06:50:16;;;;;;;2.00;1.90;;;;;;;;;;5091895;28;20958;-71
2022/08/10 06:52:46;;;;;;;2.43;1.40;;;;;;;;;;5091637;28;21205;-71
2022/08/10 06:55:14;;;;;;;1.50;1.40;;;;;;;;;;5092146;28;20448;-70
2022/08/10 06:57:43;;;;;;;2.27;2.07;;;;;;;;;;5091588;28;20451;-71
2022/08/10 07:00:10;;;;;;;2.20;1.70;;;;;;;;;;5091814;28;20461;-70
2022/08/10 07:02:43;;;;;;;1.97;1.77;;;;;;;;;;5092410;28;20460;-71
2022/08/10 07:05:12;;;;;;;3.50;2.20;;;;;;;;;;5091815;28;20531;-70
2022/08/10 07:07:41;;;;;;;2.30;1.80;;;;;;;;;;5091776;28;20451;-68
2022/08/10 07:10:10;;;;;;;2.50;1.80;;;;;;;;;;5091888;28;20445;-71
2022/08/10 07:12:39;;;;;;;2.00;1.63;;;;;;;;;;5092359;28;20485;-71
2022/08/10 07:15:07;;;;;;;1.60;1.50;;;;;;;;;;5091954;28;20537;-70
2022/08/10 07:17:36;;;;;;;3.00;1.27;;;;;;;;;;5092096;28;20456;-70
2022/08/10 07:20:05;;;;;;;2.40;1.83;;;;;;;;;;5077930;28;20441;-70
2022/08/10 07:22:34;;;;;;;2.03;1.83;;;;;;;;;;5091692;28;20532;-71
2022/08/10 07:25:02;;;;;;;3.40;1.53;;;;;;;;;;5091538;28;20868;-71
2022/08/10 07:27:31;;;;;;;1.53;1.43;;;;;;;;;;5091843;28;20445;-71
2022/08/10 07:29:59;;;;;;;3.63;1.50;;;;;;;;;;5090502;28;20936;-72
2022/08/10 07:32:27;;;;;;;2.00;1.70;;;;;;;;;;5091504;28;20857;-72
2022/08/10 07:34:56;;;;;;;2.63;1.57;;;;;;;;;;5091309;28;20861;-71
2022/08/10 07:37:24;;;;;;;3.10;1.70;;;;;;;;;;5094363;28;20892;-71
2022/08/10 07:39:52;;;;;;;1.60;1.50;;;;;;;;;;5090930;28;20513;-71
2022/08/10 07:42:20;;;;;;;1.80;1.40;;;;;;;;;;5091668;28;20459;-72
2022/08/10 07:44:50;;;;;;;2.93;1.90;;;;;;;;;;5090976;28;20469;-73
2022/08/10 07:47:19;;;;;;;1.70;1.40;;;;;;;;;;5091513;28;20457;-71
2022/08/10 07:49:47;;;;;;;1.77;1.40;;;;;;;;;;5090408;28;20849;-71
2022/08/10 07:52:14;;;;;;;2.10;1.50;;;;;;;;;;5091420;28;20533;-71
2022/08/10 07:54:43;;;;;;;1.60;1.20;;;;;;;;;;5090607;28;20448;-71
2022/08/10 07:57:13;;;;;;;1.77;1.50;;;;;;;;;;5091142;28;20930;-70
2022/08/10 07:59:43;;;;;;;2.53;1.77;;;;;;;;;;5090440;28;20463;-70
2022/08/10 08:02:14;;;;;;;1.50;1.40;;;;;;;;;;5090962;28;20555;-71
2022/08/10 08:04:42;;;;;;;1.70;1.60;;;;;;;;;;5090666;28;20924;-71
2022/08/10 08:07:09;;;;;;;2.23;1.53;;;;;;;;;;5091094;28;20983;-71
2022/08/10 08:09:36;;;;;;;2.23;1.87;;;;;;;;;;5090648;28;20453;-70
2022/08/10 08:12:04;;;;;;;1.63;1.53;;;;;;;;;;5090687;28;20500;-70
2022/08/10 08:14:32;;;;;;;1.43;1.33;;;;;;;;;;5090776;28;20445;-71
2022/08/10 08:17:00;;;;;;;1.80;1.30;;;;;;;;;;5090518;28;20773;-71
2022/08/10 08:19:29;;;;;;;1.80;1.60;;;;;;;;;;5090632;28;20540;-71
2022/08/10 08:21:56;;;;;;;1.80;1.70;;;;;;;;;;5090518;28;20449;-71
2022/08/10 08:24:24;;;;;;;1.70;1.60;;;;;;;;;;5090999;28;20456;-71
2022/08/10 08:26:52;;;;;;;3.40;1.60;;;;;;;;;;5090520;28;20444;-71
2022/08/10 08:29:20;;;;;;;1.70;1.60;;;;;;;;;;5090318;28;20468;-71
2022/08/10 08:31:47;;;;;;;1.50;1.40;;;;;;;;;;5089880;28;20445;-71
2022/08/10 08:34:15;;;;;;;4.03;1.40;;;;;;;;;;5090992;28;20492;-71
2022/08/10 08:36:43;;;;;;;1.90;1.27;;;;;;;;;;5089662;28;20821;-71
2022/08/10 08:39:11;;;;;;;1.87;1.77;;;;;;;;;;5089674;28;20440;-70
2022/08/10 08:41:54;;;;;;;2.07;1.90;;;;;;;;;;5090240;28;20456;-71
2022/08/10 08:44:24;;;;;;;1.23;1.03;;;;;;;;;;5090059;28;20437;-71
2022/08/10 08:46:56;;;;;;;2.03;1.70;;;;;;;;;;5089556;28;20895;-71
2022/08/10 08:49:39;;;;;;;1.83;1.60;;;;;;;;;;5093197;28;20444;-71
2022/08/10 08:52:14;;;;;;;1.63;1.53;;;;;;;;;;5091518;28;20551;-71
2022/08/10 08:54:48;;;;;;;1.87;1.40;;;;;;;;;;5092962;28;20467;-71
2022/08/10 08:57:20;;;;;;;2.23;1.90;;;;;;;;;;5093062;28;20440;-72
2022/08/10 08:59:53;;;;;;;1.43;1.33;;;;;;;;;;5091984;28;20995;-71
2022/08/10 09:02:27;;;;;;;1.43;1.33;;;;;;;;;;5093025;28;20551;-71
2022/08/10 09:05:01;;;;;;;3.00;1.80;;;;;;;;;;5092712;28;20448;-71
2022/08/10 09:07:52;;;;;;;1.57;1.43;;;;;;;;;;5093444;28;20462;-71
2022/08/10 09:10:21;;;;;;;1.87;1.20;;;;;;;;;;5092720;28;20441;-72
2022/08/10 09:12:52;;;;;;;1.67;1.30;;;;;;;;;;5092438;28;20492;-71
2022/08/10 09:15:24;;;;;;;2.10;1.63;;;;;;;;;;5092961;28;20513;-73
2022/08/10 09:17:53;;;;;;;1.50;1.40;;;;;;;;;;5091629;28;20531;-71
2022/08/10 09:20:23;;;;;;;1.40;1.30;;;;;;;;;;5092665;28;20453;-71
2022/08/10 09:22:56;;;;;;;2.97;1.47;;;;;;;;;;5092182;28;20444;-72
2022/08/10 09:25:24;;;;;;;1.67;1.57;;;;;;;;;;5092961;28;20483;-71
2022/08/10 09:27:57;;;;;;;1.60;1.50;;;;;;;;;;5091722;28;20440;-71
2022/08/10 09:30:28;;;;;;;1.20;1.10;;;;;;;;;;5092874;28;20441;-71
2022/08/10 09:32:58;;;;;;;1.63;1.53;;;;;;;;;;5091820;28;20495;-71
2022/08/10 09:35:28;;;;;;;1.17;1.07;;;;;;;;;;5059436;28;1067480;-71
2022/08/10 09:38:03;;;;;;;1.67;1.57;;;;;;;;;;5092984;28;20441;-71
2022/08/10 09:40:36;;;;;;;1.30;1.20;;;;;;;;;;5094085;28;20440;-71
2022/08/10 09:43:07;;;;;;;1.50;1.40;;;;;;;;;;5093173;28;20451;-71
2022/08/10 09:45:39;;;;;;;1.53;1.40;;;;;;;;;;5093721;28;20441;-71
2022/08/10 09:48:09;;;;;;;1.87;1.40;;;;;;;;;;5093483;28;20445;-71
2022/08/10 09:50:40;;;;;;;1.20;1.10;;;;;;;;;;5093913;28;20475;-71
2022/08/10 09:53:15;;;;;;;1.63;1.30;;;;;;;;;;5093921;28;20485;-71
2022/08/10 09:55:46;;;;;;;2.20;1.60;;;;;;;;;;5093374;28;20451;-71
2022/08/10 09:58:25;;;;;;;0.93;0.90;;;;;;;;;;5092748;28;21002;-71
2022/08/10 10:00:56;;;;;;;2.63;1.37;;;;;;;;;;5092738;28;20914;-71
2022/08/10 10:03:27;;;;;;;1.47;1.37;;;;;;;;;;5093618;28;20453;-71
2022/08/10 10:05:58;;;;;;;1.30;1.20;;;;;;;;;;5093069;28;20481;-71
2022/08/10 10:08:30;;;;;;;1.60;1.20;;;;;;;;;;5092622;28;20447;-71
2022/08/10 10:11:08;;;;;;;1.10;1.00;;;;;;;;;;5092573;28;20498;-71
2022/08/10 10:13:39;;;;;;;2.50;1.77;;;;;;;;;;5093473;28;20475;-71
2022/08/10 10:16:09;;;;;;;1.47;1.37;;;;;;;;;;5093024;28;20812;-71
2022/08/10 10:18:42;;;;;;;1.50;1.40;;;;;;;;;;5092596;28;20452;-71
2022/08/10 10:21:15;;;;;;;1.13;1.03;;;;;;;;;;5093239;28;20447;-71
2022/08/10 10:23:50;;;;;;;1.80;1.33;;;;;;;;;;5092645;28;20445;-71
2022/08/10 10:26:21;;;;;;;1.10;1.00;;;;;;;;;;5093151;28;20458;-71
2022/08/10 10:29:00;;;;;;;2.40;1.33;;;;;;;;;;5092015;28;20531;-71
2022/08/10 10:31:30;;;;;;;1.40;1.30;;;;;;;;;;5079604;28;20928;-71
2022/08/10 10:34:03;;;;;;;1.47;1.37;;;;;;;;;;5092020;28;20475;-71
2022/08/10 10:36:31;;;;;;;1.87;1.27;;;;;;;;;;5092909;28;20480;-72
2022/08/10 10:39:00;;;;;;;1.43;1.33;;;;;;;;;;5091901;28;20455;-72
2022/08/10 10:41:32;;;;;;;1.30;1.20;;;;;;;;;;5092879;28;20474;-72
2022/08/10 10:44:03;;;;;;;2.40;1.40;;;;;;;;;;5092076;28;20536;-71
2022/08/10 10:46:37;;;;;;;1.83;1.50;;;;;;;;;;5092735;28;20459;-71
2022/08/10 10:49:11;;;;;;;1.43;1.23;;;;;;;;;;5092332;28;20453;-71
2022/08/10 10:51:41;;;;;;;1.50;1.40;;;;;;;;;;5092638;28;20803;-71
2022/08/10 10:54:11;;;;;;;2.00;1.43;;;;;;;;;;5092381;28;20469;-71
2022/08/10 10:56:49;;;;;;;1.60;1.50;;;;;;;;;;5092273;28;20936;-71
2022/08/10 10:59:20;;;;;;;1.50;1.40;;;;;;;;;;5092152;28;20540;-71
2022/08/10 11:01:51;;;;;;;1.77;1.33;;;;;;;;;;5091665;28;20543;-71
2022/08/10 11:04:21;;;;;;;1.57;1.40;;;;;;;;;;5092536;28;20810;-71
2022/08/10 11:06:53;;;;;;;2.50;1.37;;;;;;;;;;5091679;28;20456;-71
2022/08/10 11:09:24;;;;;;;1.53;1.23;;;;;;;;;;5091507;28;20787;-72
2022/08/10 11:11:55;;;;;;;1.30;1.20;;;;;;;;;;5091357;28;20917;-71
2022/08/10 11:14:27;;;;;;;1.40;1.30;;;;;;;;;;5092212;28;20482;-71
2022/08/10 11:16:58;;;;;;;1.50;1.40;;;;;;;;;;5091176;28;20444;-71
2022/08/10 11:19:29;;;;;;;1.43;1.30;;;;;;;;;;5091307;28;20441;-72
2022/08/10 11:22:02;;;;;;;1.87;1.50;;;;;;;;;;5091322;28;21049;-71
2022/08/10 11:24:38;;;;;;;2.23;1.47;;;;;;;;;;5091551;28;20563;-71
2022/08/10 11:27:08;;;;;;;1.30;1.20;;;;;;;;;;5092053;28;20444;-71
2022/08/10 11:29:39;;;;;;;1.33;1.23;;;;;;;;;;5091619;28;20448;-71
2022/08/10 11:32:12;;;;;;;4.40;1.60;;;;;;;;;;5091961;28;20463;-71
2022/08/10 11:34:47;;;;;;;1.33;1.23;;;;;;;;;;5078180;28;20468;-71
2022/08/10 11:37:19;;;;;;;1.60;1.50;;;;;;;;;;5091584;28;20448;-72
2022/08/10 11:39:51;;;;;;;1.40;1.30;;;;;;;;;;5091252;28;20437;-70
2022/08/10 11:42:22;;;;;;;1.43;1.33;;;;;;;;;;5091576;28;20511;-71
2022/08/10 11:44:51;;;;;;;1.87;1.50;;;;;;;;;;5091122;28;20849;-72
2022/08/10 11:47:20;;;;;;;1.10;1.00;;;;;;;;;;5091398;28;20451;-71
2022/08/10 11:49:56;;;;;;;2.20;1.63;;;;;;;;;;5091199;28;20525;-71
2022/08/10 11:52:26;;;;;;;1.73;1.63;;;;;;;;;;5091592;28;20451;-71
2022/08/10 11:54:55;;;;;;;1.57;1.47;;;;;;;;;;5090797;28;20484;-71
2022/08/10 11:57:23;;;;;;;1.67;1.50;;;;;;;;;;5090633;28;20448;-71
2022/08/10 11:59:55;;;;;;;4.40;1.40;;;;;;;;;;5090988;28;20800;-71
2022/08/10 12:02:23;;;;;;;1.30;1.20;;;;;;;;;;5091313;28;20456;-72
2022/08/10 12:04:52;;;;;;;1.50;1.40;;;;;;;;;;5090443;28;20950;-71
2022/08/10 12:07:20;;;;;;;1.70;1.60;;;;;;;;;;5091025;28;20531;-71
2022/08/10 12:09:48;;;;;;;1.40;1.30;;;;;;;;;;5090447;28;20444;-69
2022/08/10 12:12:17;;;;;;;1.73;1.60;;;;;;;;;;5091365;28;20448;-70
2022/08/10 12:14:48;;;;;;;2.43;1.10;;;;;;;;;;5090695;28;20518;-71
2022/08/10 12:17:17;;;;;;;1.93;1.70;;;;;;;;;;5090723;28;20440;-70
2022/08/10 12:19:46;;;;;;;1.50;1.40;;;;;;;;;;5090800;28;20876;-69
2022/08/10 12:22:17;;;;;;;2.63;1.57;;;;;;;;;;5090394;28;20479;-70
2022/08/10 12:24:47;;;;;;;1.97;1.50;;;;;;;;;;5090729;28;20450;-70
2022/08/10 12:27:17;;;;;;;1.47;1.37;;;;;;;;;;5091205;28;20622;-70
2022/08/10 12:29:48;;;;;;;1.93;1.67;;;;;;;;;;5090327;28;20444;-70
2022/08/10 12:32:19;;;;;;;1.30;1.20;;;;;;;;;;5090834;28;20466;-71
2022/08/10 12:34:50;;;;;;;4.23;1.33;;;;;;;;;;5090282;28;20495;-70
2022/08/10 12:37:20;;;;;;;2.03;1.63;;;;;;;;;;5086517;28;20440;-70
2022/08/10 12:39:52;;;;;;;1.70;1.60;;;;;;;;;;5090241;28;20975;-70
2022/08/10 12:42:22;;;;;;;2.10;1.70;;;;;;;;;;5090662;28;20444;-70
2022/08/10 12:44:56;;;;;;;2.10;1.63;;;;;;;;;;5090156;28;20448;-70
2022/08/10 12:47:28;;;;;;;3.00;1.33;;;;;;;;;;5090170;28;20445;-70
2022/08/10 12:49:58;;;;;;;1.40;1.30;;;;;;;;;;5090249;28;20811;-70
2022/08/10 12:52:28;;;;;;;1.60;1.50;;;;;;;;;;5091171;28;20449;-70
2022/08/10 12:54:57;;;;;;;1.50;1.40;;;;;;;;;;5090382;28;20570;-70
2022/08/10 12:57:25;;;;;;;1.60;1.50;;;;;;;;;;5090215;28;20459;-70
2022/08/10 12:59:57;;;;;;;1.63;1.53;;;;;;;;;;5090204;28;20466;-70
2022/08/10 13:02:26;;;;;;;2.97;1.63;;;;;;;;;;5090520;28;20539;-70
2022/08/10 13:04:54;;;;;;;2.17;1.97;;;;;;;;;;5090787;28;20448;-70
2022/08/10 13:07:24;;;;;;;2.90;1.53;;;;;;;;;;5100675;28;20924;-70
2022/08/10 13:09:51;;;;;;;1.50;1.00;;;;;;;;;;5090204;28;20839;-70
2022/08/10 13:12:18;;;;;;;1.87;1.77;;;;;;;;;;5090794;28;20444;-71
2022/08/10 13:14:48;;;;;;;1.50;1.40;;;;;;;;;;5090195;28;20586;-70
2022/08/10 13:17:22;;;;;;;1.60;1.40;;;;;;;;;;5090087;28;20444;-70
2022/08/10 13:19:51;;;;;;;1.77;1.67;;;;;;;;;;5090074;28;20455;-70
2022/08/10 13:22:19;;;;;;;1.70;1.53;;;;;;;;;;5090292;28;20538;-70
2022/08/10 13:24:47;;;;;;;1.70;1.40;;;;;;;;;;5089954;28;20528;-70
2022/08/10 13:27:16;;;;;;;2.00;1.40;;;;;;;;;;5089733;28;20440;-70
2022/08/10 13:29:44;;;;;;;1.90;1.40;;;;;;;;;;5089525;28;20448;-70
2022/08/10 13:32:11;;;;;;;2.10;1.17;;;;;;;;;;5090244;28;20591;-70
2022/08/10 13:34:45;;;;;;;1.77;1.50;;;;;;;;;;5093330;28;20480;-70
2022/08/10 13:37:15;;;;;;;1.00;0.90;;;;;;;;;;5093631;28;20436;-70
2022/08/10 13:39:43;;;;;;;1.50;1.40;;;;;;;;;;5094041;28;20819;-70
2022/08/10 13:42:12;;;;;;;1.53;1.43;;;;;;;;;;5093788;28;20498;-70
2022/08/10 13:44:41;;;;;;;1.83;1.43;;;;;;;;;;5093791;28;20459;-68
2022/08/10 13:47:09;;;;;;;1.30;1.20;;;;;;;;;;5093548;28;20440;-69
2022/08/10 13:49:46;;;;;;;1.50;1.40;;;;;;;;;;5094094;28;20444;-70
2022/08/10 13:52:15;;;;;;;1.20;1.10;;;;;;;;;;5093638;28;20432;-70
2022/08/10 13:54:43;;;;;;;1.80;1.23;;;;;;;;;;5093209;28;20490;-70
2022/08/10 13:57:12;;;;;;;1.30;1.20;;;;;;;;;;5093358;28;20535;-70
2022/08/10 13:59:40;;;;;;;1.20;1.10;;;;;;;;;;5093850;28;20451;-70
2022/08/10 14:02:07;;;;;;;1.77;1.67;;;;;;;;;;5093193;28;20931;-70
2022/08/10 14:04:34;;;;;;;1.23;1.13;;;;;;;;;;5093381;28;20535;-70
2022/08/10 14:07:03;;;;;;;1.20;1.10;;;;;;;;;;5092976;28;20907;-71
2022/08/10 14:09:32;;;;;;;1.30;1.20;;;;;;;;;;5093351;28;20444;-70
2022/08/10 14:12:00;;;;;;;1.27;1.17;;;;;;;;;;5092806;28;20689;-70
2022/08/10 14:14:28;;;;;;;3.77;1.53;;;;;;;;;;5093131;28;20487;-69
2022/08/10 14:16:56;;;;;;;2.20;1.77;;;;;;;;;;5092597;28;20448;-70
2022/08/10 14:19:24;;;;;;;3.33;1.40;;;;;;;;;;5092482;28;20523;-70
2022/08/10 14:21:52;;;;;;;2.23;1.23;;;;;;;;;;5092807;28;20455;-70
2022/08/10 14:24:25;;;;;;;1.73;1.63;;;;;;;;;;5092814;28;20452;-70
2022/08/10 14:26:57;;;;;;;1.83;1.30;;;;;;;;;;5092740;28;20596;-69
2022/08/10 14:29:25;;;;;;;1.20;1.10;;;;;;;;;;5092614;28;20206;-69
2022/08/10 14:31:53;;;;;;;1.90;1.80;;;;;;;;;;5092104;28;20452;-70
2022/08/10 14:34:21;;;;;;;1.38;1.27;;;;;;;;;;5092784;28;20308;-71
2022/08/10 14:36:53;;;;;;;1.63;1.40;;;21.10;99.90;;;;;;5092366;28;20321;-70
2022/08/10 14:39:25;;;;;;;2.65;1.52;;;33.10;1.00;;;;;;5092342;28;20201;-71